Time;durP1;ratioP1;P1;durP2;ratioP2;P2;SDS_P1;SDS_P2;PMS_P1;PMS_P2;Temp;Humidity;BMP_temperature;BMP_pressure;BME280_temperature;BME280_humidity;BME280_pressure;Samples;Min_cycle;Max_cycle;Signal;HPM_P1;HPM_P2
2022/08/29 00:01:23;;;;;;;;;;;;;;;27.58;39.98;99367.63;4989251;28;19924;-77
2022/08/29 00:03:48;;;;;;;;;;;;;;;27.57;40.26;99363.31;4989339;28;19920;-77
2022/08/29 00:06:14;;;;;;;;;;;;;;;27.56;39.71;99358.97;4989247;28;19913;-77
2022/08/29 00:08:39;;;;;;;;;;;;;;;27.46;40.22;99354.47;4987989;28;19963;-77
2022/08/29 00:11:08;;;;;;;;;;;;;;;27.35;40.63;99366.56;4989210;28;19921;-77
2022/08/29 00:13:34;;;;;;;;;;;;;;;27.29;40.15;99372.38;4990371;28;19941;-77
2022/08/29 00:15:59;;;;;;;;;;;;;;;27.22;40.44;99370.81;4992752;28;19961;-77
2022/08/29 00:18:24;;;;;;;;;;;;;;;27.13;40.71;99374.47;4992466;28;19926;-77
2022/08/29 00:20:50;;;;;;;;;;;;;;;27.08;40.56;99369.91;4992703;28;19922;-77
2022/08/29 00:23:15;;;;;;;;;;;;;;;27.04;40.31;99376.22;4992518;28;20413;-77
2022/08/29 00:25:41;;;;;;;;;;;;;;;26.96;41.10;99374.91;4991310;28;19920;-77
2022/08/29 00:28:06;;;;;;;;;;;;;;;26.95;40.50;99381.44;4992652;28;19914;-77
2022/08/29 00:30:33;;;;;;;;;;;;;;;26.91;40.84;99381.22;4992243;28;19914;-77
2022/08/29 00:32:58;;;;;;;;;;;;;;;26.88;40.65;99387.22;4990883;28;19941;-78
2022/08/29 00:35:25;;;;;;;;;;;;;;;26.81;41.11;99375.09;4992522;28;20380;-77
2022/08/29 00:37:50;;;;;;;;;;;;;;;26.77;40.75;99376.78;4992527;28;20009;-77
2022/08/29 00:40:18;;;;;;;;;;;;;;;26.78;40.30;99370.25;4992146;28;20004;-77
2022/08/29 00:42:43;;;;;;;;;;;;;;;26.71;40.50;99369.78;4990855;28;20410;-77
2022/08/29 00:45:09;;;;;;;;;;;;;;;26.63;40.69;99381.25;4992239;28;20005;-77
2022/08/29 00:47:38;;;;;;;;;;;;;;;26.58;40.46;99369.38;4992201;28;19913;-77
2022/08/29 00:50:06;;;;;;;;;;;;;;;26.58;40.68;99366.66;4992201;28;19918;-77
2022/08/29 00:52:42;;;;;;;;;;;;;;;26.53;41.11;99361.31;4992330;28;19921;-77
2022/08/29 00:55:11;;;;;;;;;;;;;;;26.52;40.89;99367.81;4992246;28;20379;-77
2022/08/29 00:57:38;;;;;;;;;;;;;;;26.50;41.27;99363.78;4992056;28;19906;-77
2022/08/29 01:00:05;;;;;;;;;;;;;;;26.40;41.02;99367.41;4991805;28;20414;-77
2022/08/29 01:02:30;;;;;;;;;;;;;;;26.40;41.59;99372.00;4991608;28;19917;-77
2022/08/29 01:04:56;;;;;;;;;;;;;;;26.39;41.08;99375.81;4991654;28;19921;-77
2022/08/29 01:07:22;;;;;;;;;;;;;;;26.42;41.70;99365.22;4991708;28;19920;-77
2022/08/29 01:09:47;;;;;;;;;;;;;;;26.40;41.18;99370.09;4991920;28;19914;-77
2022/08/29 01:12:16;;;;;;;;;;;;;;;26.35;41.16;99374.75;4991946;28;19914;-77
2022/08/29 01:14:49;;;;;;;;;;;;;;;26.28;41.65;99367.75;4991715;28;20004;-77
2022/08/29 01:17:18;;;;;;;;;;;;;;;26.22;41.71;99363.47;4991535;28;20000;-77
2022/08/29 01:19:46;;;;;;;;;;;;;;;26.22;41.19;99363.47;4990061;28;19926;-77
2022/08/29 01:22:28;;;;;;;;;;;;;;;26.21;41.92;99363.75;4991556;28;19918;-77
2022/08/29 01:24:55;;;;;;;;;;;;;;;26.20;41.78;99364.84;4990993;28;19913;-77
2022/08/29 01:27:22;;;;;;;;;;;;;;;26.21;41.85;99363.75;4991586;28;19971;-77
2022/08/29 01:29:47;;;;;;;;;;;;;;;26.20;41.41;99367.56;4991528;28;20446;-77
2022/08/29 01:32:13;;;;;;;;;;;;;;;26.20;41.16;99364.84;4990236;28;19918;-78
2022/08/29 01:34:38;;;;;;;;;;;;;;;26.15;41.89;99367.63;4990182;28;19913;-77
2022/08/29 01:37:05;;;;;;;;;;;;;;;26.06;41.34;99363.91;4991342;28;19914;-77
2022/08/29 01:39:32;;;;;;;;;;;;;;;26.01;40.82;99361.22;4990144;28;20441;-77
2022/08/29 01:41:59;;;;;;;;;;;;;;;25.92;41.04;99367.22;4991319;28;20392;-77
2022/08/29 01:44:25;;;;;;;;;;;;;;;25.81;41.13;99364.88;4991228;28;19961;-77
2022/08/29 01:46:53;;;;;;;;;;;;;;;25.74;41.19;99361.69;4991258;28;19960;-77
2022/08/29 01:49:19;;;;;;;;;;;;;;;25.68;41.17;99354.72;4990442;28;19914;-77
2022/08/29 01:51:44;;;;;;;;;;;;;;;25.63;41.38;99375.25;4991226;28;19913;-78
2022/08/29 01:54:10;;;;;;;;;;;;;;;25.58;41.47;99371.78;4989690;28;19918;-78
2022/08/29 01:56:38;;;;;;;;;;;;;;;25.54;41.41;99373.44;4990978;28;20382;-78
2022/08/29 01:59:05;;;;;;;;;;;;;;;25.49;41.62;99378.88;4990894;28;19914;-78
2022/08/29 02:01:34;;;;;;;;;;;;;;;25.50;41.46;99369.69;4991027;28;20442;-77
2022/08/29 02:03:59;;;;;;;;;;;;;;;25.52;41.36;99370.19;4989750;28;19914;-77
2022/08/29 02:06:25;;;;;;;;;;;;;;;25.54;41.22;99368.03;4990937;28;19920;-77
2022/08/29 02:08:51;;;;;;;;;;;;;;;25.54;41.47;99368.03;4990885;28;19922;-77
2022/08/29 02:11:16;;;;;;;;;;;;;;;25.56;40.95;99372.06;4990623;28;19963;-77
2022/08/29 02:13:49;;;;;;;;;;;;;;;25.54;41.17;99371.53;4990707;28;20393;-77
2022/08/29 02:16:15;;;;;;;;;;;;;;;25.52;40.86;99365.59;4990949;28;19921;-77
2022/08/29 02:18:43;;;;;;;;;;;;;;;25.48;41.05;99367.25;4990723;28;19926;-77
2022/08/29 02:21:10;;;;;;;;;;;;;;;25.45;41.15;99377.81;4990941;28;19918;-77
2022/08/29 02:23:36;;;;;;;;;;;;;;;25.39;41.09;99371.63;4990721;28;19914;-77
2022/08/29 02:26:01;;;;;;;;;;;;;;;25.33;41.18;99367.34;4990552;28;20416;-77
2022/08/29 02:28:27;;;;;;;;;;;;;;;25.31;41.20;99366.81;4989389;28;19914;-77
2022/08/29 02:30:52;;;;;;;;;;;;;;;25.25;41.48;99371.41;4990651;28;19913;-77
2022/08/29 02:33:19;;;;;;;;;;;;;;;25.22;41.46;99365.75;4990605;28;19913;-77
2022/08/29 02:35:44;;;;;;;;;;;;;;;25.22;41.64;99369.28;4990554;28;19914;-77
2022/08/29 02:38:11;;;;;;;;;;;;;;;25.23;41.45;99373.59;4989508;28;19914;-77
2022/08/29 02:40:36;;;;;;;;;;;;;;;25.24;41.58;99377.09;4990373;28;19925;-77
2022/08/29 02:43:03;;;;;;;;;;;;;;;25.29;41.44;99377.09;4990537;28;19914;-77
2022/08/29 02:45:29;;;;;;;;;;;;;;;25.33;41.39;99383.56;4990397;28;19953;-77
2022/08/29 02:47:54;;;;;;;;;;;;;;;25.24;41.30;99380.59;4990251;28;20002;-77
2022/08/29 02:50:20;;;;;;;;;;;;;;;25.19;41.44;99386.03;4989127;28;19913;-77
2022/08/29 02:52:46;;;;;;;;;;;;;;;25.21;41.54;99391.16;4990495;28;19918;-77
2022/08/29 02:55:14;;;;;;;;;;;;;;;25.20;41.96;99387.66;4990329;28;20310;-77
2022/08/29 02:57:39;;;;;;;;;;;;;;;25.18;42.03;99397.94;4988869;28;20370;-77
2022/08/29 03:00:07;;;;;;;;;;;;;;;25.20;41.57;99393.06;4990108;28;19953;-77
2022/08/29 03:02:32;;;;;;;;;;;;;;;25.26;41.83;99391.94;4990212;28;20301;-77
2022/08/29 03:04:58;;;;;;;;;;;;;;;25.30;41.91;99397.63;4990124;28;19920;-77
2022/08/29 03:07:24;;;;;;;;;;;;;;;25.24;41.82;99391.41;4989849;28;19918;-77
2022/08/29 03:09:49;;;;;;;;;;;;;;;25.18;41.80;99392.53;4990151;28;19914;-77
2022/08/29 03:12:14;;;;;;;;;;;;;;;25.12;42.34;99400.94;4989952;28;20378;-77
2022/08/29 03:14:40;;;;;;;;;;;;;;;25.07;41.93;99401.75;4988870;28;19924;-77
2022/08/29 03:17:05;;;;;;;;;;;;;;;24.98;42.03;99400.72;4990214;28;19913;-77
2022/08/29 03:19:31;;;;;;;;;;;;;;;24.93;42.25;99401.50;4989994;28;20322;-77
2022/08/29 03:21:56;;;;;;;;;;;;;;;24.88;42.18;99412.34;4989831;28;19918;-77
2022/08/29 03:24:21;;;;;;;;;;;;;;;24.84;42.21;99413.16;4989838;28;19918;-77
2022/08/29 03:26:47;;;;;;;;;;;;;;;24.79;42.25;99416.69;4989620;28;19914;-77
2022/08/29 03:29:12;;;;;;;;;;;;;;;24.74;42.49;99410.50;4989634;28;20279;-77
2022/08/29 03:31:37;;;;;;;;;;;;;;;24.76;42.57;99411.84;4989533;28;19967;-77
2022/08/29 03:34:03;;;;;;;;;;;;;;;24.75;42.31;99412.91;4988257;28;20384;-77
2022/08/29 03:36:28;;;;;;;;;;;;;;;24.74;42.47;99413.19;4989626;28;19914;-77
2022/08/29 03:38:54;;;;;;;;;;;;;;;24.78;42.89;99414.25;4989677;28;19921;-77
2022/08/29 03:41:24;;;;;;;;;;;;;;;24.74;41.69;99419.41;4989354;28;19921;-77
2022/08/29 03:43:49;;;;;;;;;;;;;;;24.67;42.31;99419.69;4989551;28;19949;-77
2022/08/29 03:46:14;;;;;;;;;;;;;;;24.65;42.57;99416.44;4988191;28;19960;-77
2022/08/29 03:48:40;;;;;;;;;;;;;;;24.66;43.10;99414.56;4990574;28;20001;-77
2022/08/29 03:51:05;;;;;;;;;;;;;;;24.68;42.32;99415.91;4991652;28;19909;-77
2022/08/29 03:53:31;;;;;;;;;;;;;;;24.70;42.47;99423.72;4992857;28;20377;-77
2022/08/29 03:55:56;;;;;;;;;;;;;;;24.74;42.22;99421.28;4993073;28;19974;-77
2022/08/29 03:58:21;;;;;;;;;;;;;;;24.74;42.54;99421.28;4992822;28;20064;-77
2022/08/29 04:00:47;;;;;;;;;;;;;;;24.76;42.38;99421.81;4992744;28;19917;-77
2022/08/29 04:03:12;;;;;;;;;;;;;;;24.83;42.24;99419.66;4992800;28;19913;-77
2022/08/29 04:05:37;;;;;;;;;;;;;;;24.87;41.84;99431.50;4992876;28;20383;-77
2022/08/29 04:08:02;;;;;;;;;;;;;;;24.87;42.14;99431.50;4991436;28;19914;-77
2022/08/29 04:10:33;;;;;;;;;;;;;;;24.86;42.04;99429.91;4992560;28;19918;-77
2022/08/29 04:12:59;;;;;;;;;;;;;;;24.83;42.35;99433.16;4992488;28;19913;-77
2022/08/29 04:15:25;;;;;;;;;;;;;;;24.78;42.57;99438.56;4992629;28;19914;-77
2022/08/29 04:17:55;;;;;;;;;;;;;;;24.74;41.91;99440.19;4992571;28;20321;-77
2022/08/29 04:20:21;;;;;;;;;;;;;;;24.70;42.87;99438.03;4992389;28;19922;-77
2022/08/29 04:22:47;;;;;;;;;;;;;;;24.66;42.72;99436.97;4991392;28;19918;-77
2022/08/29 04:25:13;;;;;;;;;;;;;;;24.62;43.06;99438.59;4992534;28;19914;-77
2022/08/29 04:27:40;;;;;;;;;;;;;;;24.58;42.28;99442.09;4992482;28;19914;-77
2022/08/29 04:30:07;;;;;;;;;;;;;;;24.52;43.08;99441.28;4991407;28;19921;-77
2022/08/29 04:32:33;;;;;;;;;;;;;;;24.54;42.69;99432.94;4992496;28;19914;-77
2022/08/29 04:34:58;;;;;;;;;;;;;;;24.55;42.90;99439.94;4992464;28;20378;-77
2022/08/29 04:37:23;;;;;;;;;;;;;;;24.54;42.50;99441.84;4992403;28;19914;-77
2022/08/29 04:39:49;;;;;;;;;;;;;;;24.49;42.80;99441.81;4992418;28;19914;-77
2022/08/29 04:42:16;;;;;;;;;;;;;;;24.38;43.17;99441.03;4990970;28;20397;-77
2022/08/29 04:44:41;;;;;;;;;;;;;;;24.31;43.47;99442.38;4990993;28;20325;-77
2022/08/29 04:47:06;;;;;;;;;;;;;;;24.27;43.07;99444.00;4992441;28;19939;-77
2022/08/29 04:49:32;;;;;;;;;;;;;;;24.25;43.11;99441.53;4990915;28;19914;-77
2022/08/29 04:51:57;;;;;;;;;;;;;;;24.26;43.32;99445.84;4991935;28;20377;-77
2022/08/29 04:54:22;;;;;;;;;;;;;;;24.29;43.17;99448.03;4991924;28;19932;-77
2022/08/29 04:56:48;;;;;;;;;;;;;;;24.29;43.55;99439.94;4992084;28;19914;-77
2022/08/29 04:59:13;;;;;;;;;;;;;;;24.24;44.09;99449.91;4991744;28;19914;-77
2022/08/29 05:01:39;;;;;;;;;;;;;;;24.20;43.75;99449.63;4990686;28;19971;-77
2022/08/29 05:04:04;;;;;;;;;;;;;;;24.23;43.98;99448.28;4991601;28;19918;-77
2022/08/29 05:06:29;;;;;;;;;;;;;;;24.32;44.18;99458.28;4991715;28;20005;-77
2022/08/29 05:08:55;;;;;;;;;;;;;;;24.40;42.92;99451.53;4991574;28;20009;-77
2022/08/29 05:11:20;;;;;;;;;;;;;;;24.42;43.45;99449.38;4991640;28;19918;-77
2022/08/29 05:13:47;;;;;;;;;;;;;;;24.47;43.31;99457.47;4991691;28;20016;-77
2022/08/29 05:16:13;;;;;;;;;;;;;;;24.55;43.30;99456.16;4990523;28;19921;-77
2022/08/29 05:18:40;;;;;;;;;;;;;;;24.65;43.21;99454.25;4991817;28;20317;-77
2022/08/29 05:21:05;;;;;;;;;;;;;;;24.77;43.67;99455.84;4991572;28;19918;-77
2022/08/29 05:23:31;;;;;;;;;;;;;;;24.88;43.05;99454.75;4991498;28;20364;-77
2022/08/29 05:26:00;;;;;;;;;;;;;;;24.99;43.37;99457.16;4991517;28;19918;-77
2022/08/29 05:28:26;;;;;;;;;;;;;;;25.09;42.63;99458.22;4991675;28;19921;-77
2022/08/29 05:30:52;;;;;;;;;;;;;;;25.15;42.70;99460.63;4991453;28;20336;-77
2022/08/29 05:33:17;;;;;;;;;;;;;;;25.20;43.05;99473.31;4991327;28;19925;-77
2022/08/29 05:35:43;;;;;;;;;;;;;;;25.24;42.87;99468.97;4990024;28;20370;-78
2022/08/29 05:38:09;;;;;;;;;;;;;;;25.22;43.31;99471.16;4990016;28;20306;-77
2022/08/29 05:40:35;;;;;;;;;;;;;;;25.26;43.43;99470.31;4990622;28;19918;-77
2022/08/29 05:43:00;;;;;;;;;;;;;;;25.34;43.64;99480.59;4989484;28;19914;-77
2022/08/29 05:45:25;;;;;;;;;;;;;;;25.42;43.33;99464.88;4989482;28;19914;-77
2022/08/29 05:47:50;;;;;;;;;;;;;;;25.49;43.19;99471.59;4991121;28;19914;-77
2022/08/29 05:50:16;;;;;;;;;;;;;;;25.56;43.76;99471.28;4991025;28;20382;-77
2022/08/29 05:52:42;;;;;;;;;;;;;;;25.65;43.70;99466.91;4991148;28;19937;-77
2022/08/29 05:55:07;;;;;;;;;;;;;;;25.71;43.03;99463.13;4991036;28;20001;-77
2022/08/29 05:57:33;;;;;;;;;;;;;;;25.74;43.77;99465.28;4989407;28;19906;-77
2022/08/29 05:59:58;;;;;;;;;;;;;;;25.77;43.29;99461.22;4990962;28;19914;-77
2022/08/29 06:02:24;;;;;;;;;;;;;;;25.79;44.35;99475.25;4990845;28;19971;-77
2022/08/29 06:04:50;;;;;;;;;;;;;;;25.80;43.54;99471.47;4990935;28;19920;-77
2022/08/29 06:07:15;;;;;;;;;;;;;;;25.87;43.66;99464.66;4990703;28;19917;-77
2022/08/29 06:09:41;;;;;;;;;;;;;;;25.93;43.65;99468.94;4990817;28;20020;-77
2022/08/29 06:12:07;;;;;;;;;;;;;;;26.03;42.69;99472.69;4987504;28;20402;-77
2022/08/29 06:14:33;;;;;;;;;;;;;;;26.01;44.38;99469.44;4974371;28;19965;-77
2022/08/29 06:16:59;;;;;;;;;;;;;;;26.06;44.33;99469.44;4985031;28;19956;-77
2022/08/29 06:19:24;;;;;;;;;;;;;;;26.12;44.12;99473.72;4984638;28;19951;-78
2022/08/29 06:21:50;;;;;;;;;;;;;;;26.07;44.64;99465.63;4973011;28;19929;-77
2022/08/29 06:24:15;;;;;;;;;;;;;;;25.96;45.98;99470.28;4982817;28;20350;-77
2022/08/29 06:26:41;;;;;;;;;;;;;;;25.99;44.14;99469.72;4976677;28;19983;-77
2022/08/29 06:29:08;;;;;;;;;;;;;;;26.04;44.95;99468.91;4990374;28;19937;-77
2022/08/29 06:31:33;;;;;;;;;;;;;;;26.10;45.19;99471.28;4985615;28;19998;-77
2022/08/29 06:34:00;;;;;;;;;;;;;;;26.15;44.80;99479.38;4990327;28;20386;-77
2022/08/29 06:36:27;;;;;;;;;;;;;;;26.22;44.11;99470.94;5002934;28;19973;-77
2022/08/29 06:38:59;;;;;;;;;;;;;;;26.26;44.74;99467.38;5092533;28;19919;-77
2022/08/29 06:41:24;;;;;;;;;;;;;;;26.35;45.41;99473.03;4999231;28;20390;-77
2022/08/29 06:43:50;;;;;;;;;;;;;;;26.40;44.31;99472.16;4992045;28;19925;-77
2022/08/29 06:46:26;;;;;;;;;;;;;;;26.44;46.24;99473.22;4976911;28;20317;-77
2022/08/29 06:48:51;;;;;;;;;;;;;;;26.53;45.73;99469.63;4971306;28;20391;-77
2022/08/29 06:51:17;;;;;;;;;;;;;;;26.55;45.47;99464.72;4973892;28;19960;-77
2022/08/29 06:53:43;;;;;;;;;;;;;;;26.59;44.32;99471.19;4975395;28;20001;-77
2022/08/29 06:56:08;;;;;;;;;;;;;;;26.67;45.60;99477.06;4971801;28;20329;-77
2022/08/29 06:58:34;;;;;;;;;;;;;;;26.77;44.65;99477.00;4971620;28;19926;-77
2022/08/29 07:01:06;;;;;;;;;;;;;;;26.89;44.39;99480.94;4970430;28;19921;-77
2022/08/29 07:03:32;;;;;;;;;;;;;;;26.98;44.71;99480.34;4977729;28;20013;-77
2022/08/29 07:05:57;;;;;;;;;;;;;;;27.06;43.61;99488.66;4977982;28;20005;-77
2022/08/29 07:08:22;;;;;;;;;;;;;;;27.13;44.20;99478.28;4978580;28;19918;-77
2022/08/29 07:10:48;;;;;;;;;;;;;;;27.22;43.85;99487.38;4987831;28;20494;-77
2022/08/29 07:13:13;;;;;;;;;;;;;;;27.28;43.87;99482.72;4984929;28;19918;-77
2022/08/29 07:15:38;;;;;;;;;;;;;;;27.38;43.83;99484.47;4974940;28;20319;-77
2022/08/29 07:18:04;;;;;;;;;;;;;;;27.43;43.27;99482.50;4970273;28;19923;-76
2022/08/29 07:20:29;;;;;;;;;;;;;;;27.54;43.14;99489.44;4981160;28;19932;-76
2022/08/29 07:22:55;;;;;;;;;;;;;;;27.63;43.52;99488.84;4988923;28;20004;-77
2022/08/29 07:25:20;;;;;;;;;;;;;;;27.69;43.07;99490.38;4988459;28;20355;-77
2022/08/29 07:27:46;;;;;;;;;;;;;;;27.80;42.97;99491.84;4987623;28;19918;-76
2022/08/29 07:30:15;;;;;;;;;;;;;;;27.88;42.85;99482.25;4986747;28;20051;-77
2022/08/29 07:32:43;;;;;;;;;;;;;;;27.96;42.49;99487.00;4988295;28;19913;-77
2022/08/29 07:35:09;;;;;;;;;;;;;;;27.99;42.33;99483.72;4986802;28;19921;-77
2022/08/29 07:37:34;;;;;;;;;;;;;;;28.00;42.85;99485.31;4987986;28;20349;-77
2022/08/29 07:39:59;;;;;;;;;;;;;;;28.08;42.33;99481.94;4987029;28;19961;-77
2022/08/29 07:42:26;;;;;;;;;;;;;;;28.02;42.79;99492.06;4986670;28;20311;-77
2022/08/29 07:44:51;;;;;;;;;;;;;;;28.08;42.45;99488.19;4987464;28;19913;-77
2022/08/29 07:47:16;;;;;;;;;;;;;;;28.21;42.63;99483.91;4983538;28;20366;-77
2022/08/29 07:49:42;;;;;;;;;;;;;;;28.31;43.15;99485.72;4987093;28;19922;-77
2022/08/29 07:52:07;;;;;;;;;;;;;;;28.39;42.24;99488.56;4989216;28;20318;-77
2022/08/29 07:54:32;;;;;;;;;;;;;;;28.42;42.12;99479.81;4986627;28;19924;-77
2022/08/29 07:56:58;;;;;;;;;;;;;;;28.50;42.34;99483.78;4973305;28;19919;-77
2022/08/29 07:59:23;;;;;;;;;;;;;;;28.59;42.07;99481.19;4969051;28;20370;-77
2022/08/29 08:01:49;;;;;;;;;;;;;;;28.73;41.92;99476.56;4969791;28;20013;-77
2022/08/29 08:04:14;;;;;;;;;;;;;;;28.88;41.60;99476.31;4968414;28;19921;-77
2022/08/29 08:06:40;;;;;;;;;;;;;;;28.99;41.45;99474.25;4969297;28;20315;-77
2022/08/29 08:09:06;;;;;;;;;;;;;;;29.09;40.80;99469.41;4969347;28;19914;-78
2022/08/29 08:11:32;;;;;;;;;;;;;;;29.20;40.51;99464.59;4968729;28;19946;-78
2022/08/29 08:13:57;;;;;;;;;;;;;;;29.30;40.50;99458.94;4971745;28;19972;-78
2022/08/29 08:16:24;;;;;;;;;;;;;;;29.41;40.11;99470.41;4968785;28;19914;-78
2022/08/29 08:18:50;;;;;;;;;;;;;;;29.55;40.21;99473.94;4968919;28;19945;-78
2022/08/29 08:21:15;;;;;;;;;;;;;;;29.66;40.17;99472.63;4973644;28;20425;-79
2022/08/29 08:23:40;;;;;;;;;;;;;;;29.75;39.50;99472.72;4987132;28;19979;-78
2022/08/29 08:26:06;;;;;;;;;;;;;;;29.84;39.37;99464.63;4988049;28;20050;-78
2022/08/29 08:28:32;;;;;;;;;;;;;;;29.93;39.15;99465.50;4987574;28;19914;-78
2022/08/29 08:30:58;;;;;;;;;;;;;;;30.03;38.98;99471.56;4988306;28;19917;-78
2022/08/29 08:33:24;;;;;;;;;;;;;;;30.14;38.98;99468.59;4981416;28;20748;-79
2022/08/29 08:35:49;;;;;;;;;;;;;;;30.25;38.18;99464.50;4974607;28;19919;-78
2022/08/29 08:38:15;;;;;;;;;;;;;;;30.30;38.38;99464.38;4972248;28;19937;-78
2022/08/29 08:41:01;;;;;;;;;;;;;;;30.45;38.48;99465.91;4972285;28;19929;-78
2022/08/29 08:43:32;;;;;;;;;;;;;;;30.58;37.77;99462.34;4964268;28;20314;-78
2022/08/29 08:45:58;;;;;;;;;;;;;;;30.70;37.66;99459.88;4967776;28;20422;-78
2022/08/29 08:48:26;;;;;;;;;;;;;;;30.75;37.74;99457.00;4969189;28;20029;-78
2022/08/29 08:51:02;;;;;;;;;;;;;;;30.76;37.59;99461.34;4969634;28;19948;-78
2022/08/29 08:53:32;;;;;;;;;;;;;;;30.70;37.56;99459.88;4970613;28;19953;-78
2022/08/29 08:56:00;;;;;;;;;;;;;;;30.67;37.81;99463.22;4985854;28;20306;-78
2022/08/29 08:58:33;;;;;;;;;;;;;;;30.75;38.09;99450.75;4990394;28;20004;-78
2022/08/29 09:01:19;;;;;;;;;;;;;;;30.93;37.27;99445.06;4990345;28;19918;-78
2022/08/29 09:04:03;;;;;;;;;;;;;;;31.17;36.69;99454.78;4983341;28;21010;-78
2022/08/29 09:06:28;;;;;;;;;;;;;;;31.48;36.18;99449.28;4990432;28;20313;-78
2022/08/29 09:09:17;;;;;;;;;;;;;;;31.75;35.35;99445.47;4990530;28;19914;-78
2022/08/29 09:12:01;;;;;;;;;;;;;;;32.11;35.69;99442.44;4986683;28;19921;-78
2022/08/29 09:14:33;;;;;;;;;;;;;;;32.43;35.32;99435.66;4991657;28;19921;-78
2022/08/29 09:16:59;;;;;;;;;;;;;;;32.68;34.24;99442.97;4981668;28;19918;-79
2022/08/29 09:19:25;;;;;;;;;;;;;;;32.86;33.56;99438.28;4982695;28;19922;-79
2022/08/29 09:21:58;;;;;;;;;;;;;;;33.00;33.73;99443.53;4970733;28;19918;-78
2022/08/29 09:24:23;;;;;;;;;;;;;;;33.18;33.93;99436.84;4971881;28;19914;-79
2022/08/29 09:26:48;;;;;;;;;;;;;;;33.38;33.54;99436.09;4970347;28;20044;-79
2022/08/29 09:29:18;;;;;;;;;;;;;;;33.54;33.38;99430.06;4971520;28;19918;-78
2022/08/29 09:31:43;;;;;;;;;;;;;;;33.35;33.74;99433.22;4971414;28;19922;-78
2022/08/29 09:34:11;;;;;;;;;;;;;;;33.03;33.19;99432.75;4971142;28;19914;-78
2022/08/29 09:36:36;;;;;;;;;;;;;;;32.77;33.49;99443.81;4971699;28;19988;-78
2022/08/29 09:39:14;;;;;;;;;;;;;;;32.81;33.50;99436.53;4971128;28;20386;-78
2022/08/29 09:41:40;;;;;;;;;;;;;;;33.14;32.96;99435.91;4971616;28;19918;-78
2022/08/29 09:44:10;;;;;;;;;;;;;;;33.45;32.46;99439.16;4970354;28;20374;-78
2022/08/29 09:46:35;;;;;;;;;;;;;;;33.70;33.15;99429.13;4971257;28;19921;-78
2022/08/29 09:49:04;;;;;;;;;;;;;;;34.00;31.83;99427.13;4974123;28;19922;-78
2022/08/29 09:51:29;;;;;;;;;;;;;;;34.36;32.08;99431.19;4971729;28;19919;-78
2022/08/29 09:54:14;;;;;;;;;;;;;;;34.57;31.04;99425.63;4970274;28;19919;-78
2022/08/29 09:56:48;;;;;;;;;;;;;;;34.89;30.20;99422.03;4976443;28;19953;-78
2022/08/29 09:59:25;;;;;;;;;;;;;;;35.12;30.71;99424.34;4990759;28;20408;-78
2022/08/29 10:02:20;;;;;;;;;;;;;;;35.35;28.86;99425.50;4989472;28;19922;-78
2022/08/29 10:05:06;;;;;;;;;;;;;;;35.58;28.05;99425.78;4981544;28;19921;-78
2022/08/29 10:07:45;;;;;;;;;;;;;;;35.67;27.20;99409.97;4975188;28;19918;-78
2022/08/29 10:10:16;;;;;;;;;;;;;;;35.77;29.04;99412.25;4989047;28;19917;-78
2022/08/29 10:13:04;;;;;;;;;;;;;;;35.87;27.49;99409.03;4990461;28;19922;-78
2022/08/29 10:15:40;;;;;;;;;;;;;;;36.02;27.71;99410.22;4981336;28;19967;-78
2022/08/29 10:18:22;;;;;;;;;;;;;;;36.21;28.32;99406.81;4971334;28;20381;-79
2022/08/29 10:21:06;;;;;;;;;;;;;;;36.29;29.50;99401.16;4971020;28;19918;-79
2022/08/29 10:23:50;;;;;;;;;;;;;;;36.32;27.00;99390.63;4969470;28;19924;-78
2022/08/29 10:26:32;;;;;;;;;;;;;;;36.25;29.26;99392.00;4970796;28;19910;-79
2022/08/29 10:29:07;;;;;;;;;;;;;;;36.31;27.47;99383.53;4974963;28;19925;-79
2022/08/29 10:31:36;;;;;;;;;;;;;;;36.40;27.90;99378.66;4971281;28;19918;-78
2022/08/29 10:34:20;;;;;;;;;;;;;;;36.50;28.71;99378.94;4970982;28;19914;-78
2022/08/29 10:36:50;;;;;;;;;;;;;;;36.70;27.18;99382.56;4971253;28;19915;-79
2022/08/29 10:39:22;;;;;;;;;;;;;;;36.93;27.41;99374.50;4970831;28;19950;-79
2022/08/29 10:41:54;;;;;;;;;;;;;;;37.16;27.28;99369.94;4970158;28;20379;-79
2022/08/29 10:44:25;;;;;;;;;;;;;;;37.39;27.03;99370.06;4970760;28;19914;-79
2022/08/29 10:46:50;;;;;;;;;;;;;;;37.39;26.24;99367.31;4978468;28;19918;-79
2022/08/29 10:49:43;;;;;;;;;;;;;;;37.41;26.25;99350.44;4971145;28;20413;-79
2022/08/29 10:52:10;;;;;;;;;;;;;;;37.42;27.57;99350.06;4970984;28;19918;-79
2022/08/29 10:55:01;;;;;;;;;;;;;;;37.47;26.46;99371.03;4974762;28;19918;-79
2022/08/29 10:57:47;;;;;;;;;;;;;;;37.66;25.42;99350.94;4987117;28;20421;-79
2022/08/29 11:00:20;;;;;;;;;;;;;;;37.75;25.98;99346.03;4986982;28;19920;-79
2022/08/29 11:02:45;;;;;;;;;;;;;;;37.92;25.42;99339.28;4989401;28;19979;-79
2022/08/29 11:05:20;;;;;;;;;;;;;;;38.02;24.90;99338.69;4987453;28;19914;-79
2022/08/29 11:07:50;;;;;;;;;;;;;;;38.18;24.74;99333.09;4969410;28;19968;-79
2022/08/29 11:10:17;;;;;;;;;;;;;;;38.14;24.16;99330.22;4970075;28;19921;-79
2022/08/29 11:12:45;;;;;;;;;;;;;;;38.18;24.96;99330.31;4970362;28;19921;-79
2022/08/29 11:15:16;;;;;;;;;;;;;;;38.27;25.31;99326.16;4968423;28;19914;-79
2022/08/29 11:17:43;;;;;;;;;;;;;;;38.34;24.86;99323.53;4970266;28;19921;-79
2022/08/29 11:20:15;;;;;;;;;;;;;;;38.42;23.32;99325.22;4971135;28;19922;-79
2022/08/29 11:22:56;;;;;;;;;;;;;;;38.47;24.24;99327.66;4988477;28;20560;-79
2022/08/29 11:25:21;;;;;;;;;;;;;;;38.63;23.93;99329.53;4975407;28;19922;-79
2022/08/29 11:27:50;;;;;;;;;;;;;;;38.70;25.15;99324.94;4969304;28;19976;-79
2022/08/29 11:30:16;;;;;;;;;;;;;;;38.75;22.40;99307.25;4969449;28;19925;-77
2022/08/29 11:32:55;;;;;;;;;;;;;;;38.87;23.84;99312.56;4969912;28;19914;-77
2022/08/29 11:35:43;;;;;;;;;;;;;;;39.04;22.54;99305.69;4967998;28;20409;-77
2022/08/29 11:38:14;;;;;;;;;;;;;;;39.22;21.66;99300.41;4963587;28;20368;-77
2022/08/29 11:40:42;;;;;;;;;;;;;;;39.27;24.43;99303.66;4968800;28;19922;-78
2022/08/29 11:43:11;;;;;;;;;;;;;;;39.16;24.26;99291.66;4968904;28;19921;-78
2022/08/29 11:45:37;;;;;;;;;;;;;;;39.21;23.28;99291.34;4970101;28;20001;-79
2022/08/29 11:48:09;;;;;;;;;;;;;;;39.26;20.94;99282.72;4980473;28;19986;-79
2022/08/29 11:50:35;;;;;;;;;;;;;;;39.26;21.12;99284.69;4975863;28;19997;-78
2022/08/29 11:53:10;;;;;;;;;;;;;;;39.30;20.61;99282.75;4968692;28;20028;-77
2022/08/29 11:55:35;;;;;;;;;;;;;;;39.40;22.03;99284.88;4968758;28;20000;-78
2022/08/29 11:58:03;;;;;;;;;;;;;;;39.52;21.42;99270.03;4970550;28;20011;-78
2022/08/29 12:00:34;;;;;;;;;;;;;;;39.59;21.27;99272.88;4970109;28;19924;-78
2022/08/29 12:02:59;;;;;;;;;;;;;;;39.71;19.64;99270.66;4972369;28;19929;-79
2022/08/29 12:05:28;;;;;;;;;;;;;;;39.54;21.22;99267.69;4976286;28;19922;-78
2022/08/29 12:08:00;;;;;;;;;;;;;;;39.56;22.47;99266.16;4975614;28;19914;-79
2022/08/29 12:10:28;;;;;;;;;;;;;;;39.58;22.15;99255.50;4987831;28;19922;-79
2022/08/29 12:13:01;;;;;;;;;;;;;;;39.61;19.59;99253.94;4972929;28;19925;-79
2022/08/29 12:15:26;;;;;;;;;;;;;;;39.67;21.43;99256.00;4973251;28;20362;-79
2022/08/29 12:18:14;;;;;;;;;;;;;;;39.74;20.21;99252.50;4984594;28;19917;-79
2022/08/29 12:20:44;;;;;;;;;;;;;;;39.77;21.32;99248.19;4985285;28;20337;-78
2022/08/29 12:23:09;;;;;;;;;;;;;;;39.81;22.31;99252.56;4988296;28;19921;-79
2022/08/29 12:25:34;;;;;;;;;;;;;;;39.60;20.11;99252.38;4974713;28;20137;-79
2022/08/29 12:28:02;;;;;;;;;;;;;;;39.61;21.41;99245.66;4972626;28;19965;-79
2022/08/29 12:30:38;;;;;;;;;;;;;;;39.61;21.36;99248.44;4975057;28;20319;-79
2022/08/29 12:33:15;;;;;;;;;;;;;;;39.59;21.14;99235.00;4975790;28;20390;-79
2022/08/29 12:35:53;;;;;;;;;;;;;;;39.40;20.24;99240.69;4991755;28;20402;-79
2022/08/29 12:38:21;;;;;;;;;;;;;;;39.11;19.86;99239.53;4979729;28;20383;-79
2022/08/29 12:40:52;;;;;;;;;;;;;;;38.90;21.24;99234.50;4990096;28;19953;-79
2022/08/29 12:43:27;;;;;;;;;;;;;;;38.69;21.70;99237.78;4989754;28;19921;-79
2022/08/29 12:45:52;;;;;;;;;;;;;;;38.35;21.68;99230.53;4985972;28;19925;-79
2022/08/29 12:48:32;;;;;;;;;;;;;;;38.01;20.67;99232.34;4983977;28;19918;-78
2022/08/29 12:50:57;;;;;;;;;;;;;;;37.72;22.10;99229.06;4978669;28;19918;-79
2022/08/29 12:53:25;;;;;;;;;;;;;;;37.49;22.71;99233.72;4975824;28;19990;-79